Time;durP1;ratioP1;P1;durP2;ratioP2;P2;SDS_P1;SDS_P2;PMS_P1;PMS_P2;Temp;Humidity;BMP_temperature;BMP_pressure;BME280_temperature;BME280_humidity;BME280_pressure;Samples;Min_cycle;Max_cycle;Signal;HPM_P1;HPM_P2
2024/01/08 00:02:24;;;;;;;14.15;3.90;;;;;;;;;;5050534;28;20033;-63
2024/01/08 00:04:50;;;;;;;8.32;3.60;;;;;;;;;;5050440;28;20761;-63
2024/01/08 00:07:17;;;;;;;7.28;3.40;;;;;;;;;;5048970;28;20948;-63
2024/01/08 00:09:43;;;;;;;7.15;3.40;;;;;;;;;;5049189;28;20032;-63
2024/01/08 00:12:09;;;;;;;7.95;3.00;;;;;;;;;;5058096;28;20043;-63
2024/01/08 00:14:35;;;;;;;7.15;3.33;;;;;;;;;;5050803;28;20037;-63
2024/01/08 00:17:01;;;;;;;8.88;3.08;;;;;;;;;;5049550;28;20040;-63
2024/01/08 00:19:27;;;;;;;7.72;3.30;;;;;;;;;;5049869;28;20037;-63
2024/01/08 00:21:53;;;;;;;7.85;3.53;;;;;;;;;;5048857;28;20044;-63
2024/01/08 00:24:19;;;;;;;11.70;3.70;;;;;;;;;;5048921;28;20041;-63
2024/01/08 00:26:45;;;;;;;9.27;3.28;;;;;;;;;;5049477;28;20036;-63
2024/01/08 00:29:11;;;;;;;9.10;3.63;;;;;;;;;;5049463;28;20093;-63
2024/01/08 00:31:37;;;;;;;9.07;3.78;;;;;;;;;;5050216;28;20047;-63
2024/01/08 00:34:03;;;;;;;8.35;3.55;;;;;;;;;;5050296;28;20032;-63
2024/01/08 00:36:29;;;;;;;8.45;3.75;;;;;;;;;;5049498;28;20036;-63
2024/01/08 00:38:55;;;;;;;7.28;3.65;;;;;;;;;;5050506;28;20036;-63
2024/01/08 00:41:21;;;;;;;9.70;3.83;;;;;;;;;;5050113;28;20711;-63
2024/01/08 00:43:48;;;;;;;7.70;3.55;;;;;;;;;;5048827;28;20039;-63
2024/01/08 00:46:15;;;;;;;7.35;2.97;;;;;;;;;;5050063;28;20067;-63
2024/01/08 00:48:41;;;;;;;5.57;2.90;;;;;;;;;;5048912;28;20502;-63
2024/01/08 00:51:09;;;;;;;7.28;3.45;;;;;;;;;;5050170;28;21283;-63
2024/01/08 00:53:35;;;;;;;9.98;3.15;;;;;;;;;;5049383;28;20055;-63
2024/01/08 00:56:01;;;;;;;7.97;3.45;;;;;;;;;;5050098;28;20048;-63
2024/01/08 00:58:28;;;;;;;7.43;3.08;;;;;;;;;;5049490;28;20024;-63
2024/01/08 01:00:54;;;;;;;8.30;3.55;;;;;;;;;;5048957;28;20113;-63
2024/01/08 01:03:20;;;;;;;7.07;3.33;;;;;;;;;;5062617;28;20029;-63
2024/01/08 01:05:46;;;;;;;8.10;3.42;;;;;;;;;;5063294;28;20669;-63
2024/01/08 01:08:12;;;;;;;7.40;3.50;;;;;;;;;;5049481;28;20053;-63
2024/01/08 01:10:38;;;;;;;6.78;3.85;;;;;;;;;;5048625;28;20032;-63
2024/01/08 01:13:04;;;;;;;9.02;3.50;;;;;;;;;;5049881;28;20033;-63
2024/01/08 01:15:30;;;;;;;6.70;2.95;;;;;;;;;;5049114;28;20036;-63
2024/01/08 01:17:56;;;;;;;7.32;3.53;;;;;;;;;;5048539;28;20037;-63
2024/01/08 01:20:22;;;;;;;8.85;3.83;;;;;;;;;;5049099;28;20028;-63
2024/01/08 01:22:48;;;;;;;8.45;4.22;;;;;;;;;;5048810;28;20104;-63
2024/01/08 01:25:14;;;;;;;8.98;3.90;;;;;;;;;;5049180;28;20554;-63
2024/01/08 01:27:40;;;;;;;10.40;3.65;;;;;;;;;;5049319;28;20033;-63
2024/01/08 01:30:07;;;;;;;8.10;3.60;;;;;;;;;;5048483;28;20032;-63
2024/01/08 01:32:33;;;;;;;9.15;3.50;;;;;;;;;;5048470;28;20029;-63
2024/01/08 01:34:59;;;;;;;8.73;3.92;;;;;;;;;;5048817;28;20043;-63
2024/01/08 01:37:25;;;;;;;8.15;4.07;;;;;;;;;;5049467;28;20032;-63
2024/01/08 01:39:51;;;;;;;11.07;3.92;;;;;;;;;;5048633;28;20037;-63
2024/01/08 01:42:17;;;;;;;7.45;3.67;;;;;;;;;;5048918;28;20074;-63
2024/01/08 01:44:43;;;;;;;7.40;3.72;;;;;;;;;;5048790;28;20032;-63
2024/01/08 01:47:09;;;;;;;6.93;3.75;;;;;;;;;;5047403;28;20082;-63
2024/01/08 01:49:35;;;;;;;10.60;4.40;;;;;;;;;;5061894;28;20171;-63
2024/01/08 01:52:02;;;;;;;7.35;3.80;;;;;;;;;;5048983;28;20043;-63
2024/01/08 01:54:28;;;;;;;8.05;4.18;;;;;;;;;;5049356;28;20029;-63
2024/01/08 01:56:56;;;;;;;7.10;3.58;;;;;;;;;;5048906;28;20036;-63
2024/01/08 01:59:23;;;;;;;6.97;3.88;;;;;;;;;;5048847;28;20668;-63
2024/01/08 02:01:49;;;;;;;11.25;3.92;;;;;;;;;;5049075;28;20074;-63
2024/01/08 02:04:17;;;;;;;8.43;3.78;;;;;;;;;;5048824;28;20063;-63
2024/01/08 02:06:44;;;;;;;7.75;3.80;;;;;;;;;;5047873;28;20771;-63
2024/01/08 02:09:10;;;;;;;7.75;3.67;;;;;;;;;;5048986;28;20148;-63
2024/01/08 02:11:37;;;;;;;8.10;3.80;;;;;;;;;;5046560;28;20036;-63
2024/01/08 02:14:03;;;;;;;8.88;3.95;;;;;;;;;;5048649;28;20031;-63
2024/01/08 02:16:29;;;;;;;8.13;4.28;;;;;;;;;;5048473;28;20047;-63
2024/01/08 02:18:56;;;;;;;9.75;4.30;;;;;;;;;;5048300;28;20036;-63
2024/01/08 02:21:22;;;;;;;7.68;4.00;;;;;;;;;;5061598;28;20036;-63
2024/01/08 02:23:48;;;;;;;8.73;3.95;;;;;;;;;;5048761;28;20036;-63
2024/01/08 02:26:14;;;;;;;7.40;3.97;;;;;;;;;;5047391;28;20033;-63
2024/01/08 02:28:40;;;;;;;11.57;4.00;;;;;;;;;;5048189;28;20025;-63
2024/01/08 02:31:06;;;;;;;7.93;3.85;;;;;;;;;;5048124;28;21699;-63
2024/01/08 02:33:32;;;;;;;9.35;4.68;;;;;;;;;;5048709;28;20054;-63
2024/01/08 02:35:58;;;;;;;12.02;6.10;;;;;;;;;;5046494;28;20033;-63
2024/01/08 02:38:24;;;;;;;8.15;4.35;;;;;;;;;;5048729;28;20036;-63
2024/01/08 02:40:50;;;;;;;9.65;4.68;;;;;;;;;;5047896;28;20040;-63
2024/01/08 02:43:17;;;;;;;8.68;4.15;;;;;;;;;;5048151;28;20241;-63
2024/01/08 02:45:43;;;;;;;11.20;4.72;;;;;;;;;;5052618;28;21147;-63
2024/01/08 02:48:09;;;;;;;7.15;3.92;;;;;;;;;;5050605;28;20105;-63
2024/01/08 02:50:35;;;;;;;9.52;4.30;;;;;;;;;;5051732;28;20714;-63
2024/01/08 02:53:01;;;;;;;10.38;5.03;;;;;;;;;;5059851;28;20998;-63
2024/01/08 02:55:27;;;;;;;10.25;5.03;;;;;;;;;;5065553;28;21871;-63
2024/01/08 02:57:53;;;;;;;9.95;4.45;;;;;;;;;;5051939;28;21163;-64
2024/01/08 03:00:20;;;;;;;8.65;4.68;;;;;;;;;;5052474;28;20036;-63
2024/01/08 03:02:46;;;;;;;7.90;4.40;;;;;;;;;;5051142;28;20121;-63
2024/01/08 03:05:12;;;;;;;11.65;4.10;;;;;;;;;;5051735;28;20575;-63
2024/01/08 03:07:38;;;;;;;9.30;4.75;;;;;;;;;;5051089;28;20462;-63
2024/01/08 03:10:05;;;;;;;9.75;4.43;;;;;;;;;;5051300;28;20714;-63
2024/01/08 03:12:31;;;;;;;9.20;4.53;;;;;;;;;;5052340;28;20039;-63
2024/01/08 03:14:57;;;;;;;8.95;3.92;;;;;;;;;;5051884;28;20040;-63
2024/01/08 03:17:23;;;;;;;7.97;4.20;;;;;;;;;;5050922;28;20036;-63
2024/01/08 03:19:50;;;;;;;9.60;4.70;;;;;;;;;;5050576;28;20040;-63
2024/01/08 03:22:16;;;;;;;8.15;4.25;;;;;;;;;;5051671;28;20029;-63
2024/01/08 03:24:42;;;;;;;10.02;4.45;;;;;;;;;;5051584;28;20032;-63
2024/01/08 03:27:08;;;;;;;6.65;3.90;;;;;;;;;;5050479;28;20036;-63
2024/01/08 03:29:34;;;;;;;9.88;4.10;;;;;;;;;;5050589;28;20063;-63
2024/01/08 03:32:00;;;;;;;7.13;3.92;;;;;;;;;;5049412;28;20040;-63
2024/01/08 03:34:26;;;;;;;8.00;3.75;;;;;;;;;;5050373;28;20032;-63
2024/01/08 03:36:52;;;;;;;8.82;4.22;;;;;;;;;;5050099;28;20052;-63
2024/01/08 03:39:18;;;;;;;10.60;4.90;;;;;;;;;;5049414;28;20066;-63
2024/01/08 03:41:44;;;;;;;9.75;5.00;;;;;;;;;;5049361;28;20040;-63
2024/01/08 03:44:13;;;;;;;8.30;4.35;;;;;;;;;;5049117;28;21406;-63
2024/01/08 03:46:39;;;;;;;7.70;3.90;;;;;;;;;;5049913;28;20384;-63
2024/01/08 03:49:06;;;;;;;10.38;3.97;;;;;;;;;;5049928;28;20032;-63
2024/01/08 03:51:33;;;;;;;9.88;3.90;;;;;;;;;;5050127;28;20104;-63
2024/01/08 03:53:59;;;;;;;7.55;3.80;;;;;;;;;;5048914;28;21330;-63
2024/01/08 03:56:25;;;;;;;9.07;3.85;;;;;;;;;;5049389;28;20151;-63
2024/01/08 03:58:51;;;;;;;8.68;4.57;;;;;;;;;;5048962;28;20036;-63
2024/01/08 04:01:17;;;;;;;9.95;4.03;;;;;;;;;;5049396;28;20036;-63
2024/01/08 04:03:43;;;;;;;8.05;4.13;;;;;;;;;;5063076;28;20037;-63
2024/01/08 04:06:09;;;;;;;11.07;4.45;;;;;;;;;;5049231;28;20620;-63
2024/01/08 04:08:35;;;;;;;8.48;4.22;;;;;;;;;;5050119;28;20048;-63
2024/01/08 04:11:02;;;;;;;8.18;3.63;;;;;;;;;;5048474;28;20040;-64
2024/01/08 04:13:28;;;;;;;10.27;4.38;;;;;;;;;;5049476;28;20044;-63
2024/01/08 04:15:54;;;;;;;8.90;4.13;;;;;;;;;;5050428;28;20044;-63
2024/01/08 04:18:20;;;;;;;8.50;3.85;;;;;;;;;;5050034;28;20094;-63
2024/01/08 04:20:46;;;;;;;7.18;3.63;;;;;;;;;;5048437;28;21021;-63
2024/01/08 04:23:12;;;;;;;9.93;3.70;;;;;;;;;;5049422;28;20041;-63
2024/01/08 04:25:38;;;;;;;9.27;3.60;;;;;;;;;;5049229;28;20037;-63
2024/01/08 04:28:04;;;;;;;8.27;3.90;;;;;;;;;;5049477;28;20032;-63
2024/01/08 04:30:31;;;;;;;8.40;3.78;;;;;;;;;;5063888;28;20036;-63
2024/01/08 04:32:57;;;;;;;8.60;4.50;;;;;;;;;;5063825;28;20048;-63
2024/01/08 04:35:23;;;;;;;9.98;3.83;;;;;;;;;;5048673;28;20032;-63
2024/01/08 04:37:49;;;;;;;6.15;2.85;;;;;;;;;;5050741;28;20081;-63
2024/01/08 04:40:15;;;;;;;7.65;3.50;;;;;;;;;;5049041;28;20052;-63
2024/01/08 04:42:41;;;;;;;7.50;3.08;;;;;;;;;;5049087;28;20032;-63
2024/01/08 04:45:08;;;;;;;7.18;3.70;;;;;;;;;;5065156;28;20040;-63
2024/01/08 04:47:34;;;;;;;10.32;3.80;;;;;;;;;;5063626;28;20698;-63
2024/01/08 04:50:00;;;;;;;9.38;4.05;;;;;;;;;;5049674;28;20041;-63
2024/01/08 04:52:26;;;;;;;6.30;2.90;;;;;;;;;;5050535;28;20066;-64
2024/01/08 04:54:52;;;;;;;6.97;2.95;;;;;;;;;;5049095;28;20061;-63
2024/01/08 04:57:18;;;;;;;7.13;2.83;;;;;;;;;;5049693;28;20037;-64
2024/01/08 04:59:44;;;;;;;6.03;2.85;;;;;;;;;;5049339;28;20351;-63
2024/01/08 05:02:11;;;;;;;6.90;2.47;;;;;;;;;;5049170;28;20132;-63
2024/01/08 05:04:37;;;;;;;5.28;2.22;;;;;;;;;;5050204;28;20037;-63
2024/01/08 05:07:03;;;;;;;9.20;3.20;;;;;;;;;;5048590;28;20127;-63
2024/01/08 05:09:30;;;;;;;5.82;2.63;;;;;;;;;;5050481;28;20054;-63
2024/01/08 05:11:56;;;;;;;8.40;3.17;;;;;;;;;;5048984;28;20043;-63
2024/01/08 05:14:22;;;;;;;6.22;2.75;;;;;;;;;;5049467;28;20029;-63
2024/01/08 05:16:48;;;;;;;6.28;2.38;;;;;;;;;;5049057;28;20036;-63
2024/01/08 05:19:14;;;;;;;6.68;2.55;;;;;;;;;;5048508;28;20126;-63
2024/01/08 05:21:40;;;;;;;6.35;2.60;;;;;;;;;;5048990;28;20559;-63
2024/01/08 05:24:06;;;;;;;4.78;2.40;;;;;;;;;;5048604;28;20383;-63
2024/01/08 05:26:33;;;;;;;6.38;2.42;;;;;;;;;;5049353;28;20395;-63
2024/01/08 05:28:59;;;;;;;7.78;2.47;;;;;;;;;;5049754;28;20575;-63
2024/01/08 05:31:25;;;;;;;5.88;2.53;;;;;;;;;;5048599;28;20427;-63
2024/01/08 05:33:51;;;;;;;10.98;2.45;;;;;;;;;;5049782;28;21004;-63
2024/01/08 05:36:17;;;;;;;6.28;2.80;;;;;;;;;;5048784;28;20675;-63
2024/01/08 05:38:43;;;;;;;6.57;2.50;;;;;;;;;;5049060;28;20031;-63
2024/01/08 05:41:09;;;;;;;6.28;2.50;;;;;;;;;;5047965;28;20716;-63
2024/01/08 05:43:38;;;;;;;6.70;2.53;;;;;;;;;;5049583;28;20063;-63
2024/01/08 05:46:05;;;;;;;6.45;2.97;;;;;;;;;;5048543;28;20143;-63
2024/01/08 05:48:37;;;;;;;7.07;3.33;;;;;;;;;;5049297;28;20097;-63
2024/01/08 05:51:12;;;;;;;5.60;2.70;;;;;;;;;;5049275;28;20048;-63
2024/01/08 05:53:38;;;;;;;7.30;3.42;;;;;;;;;;5049119;28;20029;-63
2024/01/08 05:56:04;;;;;;;8.55;3.15;;;;;;;;;;5048925;28;20079;-63
2024/01/08 05:58:32;;;;;;;7.63;3.15;;;;;;;;;;5049012;28;20041;-63
2024/01/08 06:00:59;;;;;;;6.18;2.47;;;;;;;;;;5047555;28;20443;-63
2024/01/08 06:03:25;;;;;;;5.65;2.90;;;;;;;;;;5048155;28;20081;-63
2024/01/08 06:05:51;;;;;;;6.15;3.00;;;;;;;;;;5048662;28;20079;-63
2024/01/08 06:08:17;;;;;;;9.38;3.60;;;;;;;;;;5047782;28;20133;-63
2024/01/08 06:10:43;;;;;;;8.60;3.72;;;;;;;;;;5046701;28;20032;-63
2024/01/08 06:13:10;;;;;;;8.00;3.30;;;;;;;;;;5047754;28;20036;-63
2024/01/08 06:15:36;;;;;;;7.15;3.13;;;;;;;;;;5047812;28;20419;-63
2024/01/08 06:18:04;;;;;;;7.07;3.33;;;;;;;;;;5047486;28;20182;-63
2024/01/08 06:20:30;;;;;;;8.48;3.33;;;;;;;;;;5047327;28;20522;-63
2024/01/08 06:22:56;;;;;;;9.75;3.13;;;;;;;;;;5047045;28;20921;-63
2024/01/08 06:25:22;;;;;;;11.43;3.58;;;;;;;;;;5047885;28;20040;-63
2024/01/08 06:27:48;;;;;;;7.68;3.45;;;;;;;;;;5048170;28;20028;-63
2024/01/08 06:30:14;;;;;;;8.18;3.33;;;;;;;;;;5048747;28;20032;-63
2024/01/08 06:32:40;;;;;;;5.90;2.72;;;;;;;;;;5047572;28;20051;-63
2024/01/08 06:35:07;;;;;;;8.00;3.63;;;;;;;;;;5047436;28;20035;-63
2024/01/08 06:37:33;;;;;;;7.28;2.85;;;;;;;;;;5048062;28;20472;-63
2024/01/08 06:39:59;;;;;;;8.13;2.95;;;;;;;;;;5048385;28;21310;-64
2024/01/08 06:42:25;;;;;;;9.55;3.25;;;;;;;;;;5047876;28;20090;-63
2024/01/08 06:44:51;;;;;;;8.75;2.78;;;;;;;;;;5048602;28;20037;-63
2024/01/08 06:47:17;;;;;;;5.75;2.47;;;;;;;;;;5048824;28;20067;-63
2024/01/08 06:49:43;;;;;;;7.85;2.72;;;;;;;;;;5048769;28;20036;-63
2024/01/08 06:52:09;;;;;;;7.30;2.67;;;;;;;;;;5039540;28;21391;-63
2024/01/08 06:54:37;;;;;;;8.02;2.67;;;;;;;;;;5038199;28;20105;-64
2024/01/08 06:57:03;;;;;;;11.32;3.45;;;;;;;;;;5038980;28;20036;-64
2024/01/08 06:59:29;;;;;;;7.57;2.70;;;;;;;;;;5040309;28;20032;-64
2024/01/08 07:01:55;;;;;;;10.35;3.63;;;;;;;;;;5048109;28;20044;-64
2024/01/08 07:04:21;;;;;;;7.63;3.10;;;;;;;;;;5040905;28;20044;-63
2024/01/08 07:06:47;;;;;;;9.98;3.45;;;;;;;;;;5039062;28;20403;-63
2024/01/08 07:09:13;;;;;;;11.63;3.10;;;;;;;;;;5039230;28;20827;-64
2024/01/08 07:11:39;;;;;;;7.50;2.60;;;;;;;;;;5040866;28;20027;-63
2024/01/08 07:14:05;;;;;;;9.32;3.03;;;;;;;;;;5039075;28;20105;-63
2024/01/08 07:16:32;;;;;;;7.90;2.92;;;;;;;;;;5041051;28;20036;-64
2024/01/08 07:18:58;;;;;;;8.55;2.83;;;;;;;;;;5040891;28;20052;-63
2024/01/08 07:21:24;;;;;;;8.20;3.50;;;;;;;;;;5039287;28;20047;-63
2024/01/08 07:23:50;;;;;;;9.50;3.53;;;;;;;;;;5040232;28;20774;-63
2024/01/08 07:26:16;;;;;;;7.80;3.08;;;;;;;;;;5040182;28;20040;-63
2024/01/08 07:28:43;;;;;;;10.95;2.88;;;;;;;;;;5041076;28;20426;-64
2024/01/08 07:31:11;;;;;;;7.65;2.95;;;;;;;;;;5043076;28;20043;-63
2024/01/08 07:33:37;;;;;;;10.68;3.42;;;;;;;;;;5044358;28;20102;-64
2024/01/08 07:36:06;;;;;;;12.25;3.53;;;;;;;;;;5050962;28;20436;-63
2024/01/08 07:38:32;;;;;;;7.32;3.10;;;;;;;;;;5044419;28;21744;-63
2024/01/08 07:40:59;;;;;;;12.02;3.53;;;;;;;;;;5044589;28;20059;-64
2024/01/08 07:43:26;;;;;;;7.68;3.00;;;;;;;;;;5043912;28;20070;-64
2024/01/08 07:45:52;;;;;;;6.35;2.80;;;;;;;;;;5044157;28;20090;-63
2024/01/08 07:48:18;;;;;;;6.40;2.72;;;;;;;;;;5043380;28;20094;-64
2024/01/08 07:50:45;;;;;;;5.70;2.42;;;;;;;;;;5043523;28;20036;-63
2024/01/08 07:53:11;;;;;;;6.53;2.80;;;;;;;;;;5042388;28;20565;-64
2024/01/08 07:55:37;;;;;;;10.60;3.22;;;;;;;;;;5043640;28;20186;-64
2024/01/08 07:58:03;;;;;;;8.02;2.97;;;;;;;;;;5043800;28;20040;-64
2024/01/08 08:00:29;;;;;;;7.85;3.00;;;;;;;;;;5043420;28;20037;-64
2024/01/08 08:02:55;;;;;;;9.63;3.40;;;;;;;;;;5042959;28;20044;-64
2024/01/08 08:05:21;;;;;;;10.98;3.40;;;;;;;;;;5040243;28;20123;-64
2024/01/08 08:07:48;;;;;;;6.90;2.80;;;;;;;;;;5040228;28;20068;-64
2024/01/08 08:10:14;;;;;;;10.35;3.22;;;;;;;;;;5043479;28;20025;-64
2024/01/08 08:12:40;;;;;;;9.50;3.20;;;;;;;;;;5043404;28;20714;-64
2024/01/08 08:15:06;;;;;;;9.90;3.25;;;;;;;;;;5042915;28;20032;-64
2024/01/08 08:17:32;;;;;;;10.63;3.72;;;;;;;;;;5042723;28;20044;-64
2024/01/08 08:19:58;;;;;;;10.82;2.72;;;;;;;;;;5042655;28;20037;-64
2024/01/08 08:22:24;;;;;;;8.30;2.67;;;;;;;;;;5042289;28;20039;-64
2024/01/08 08:24:50;;;;;;;11.20;2.95;;;;;;;;;;5050857;28;20608;-64
2024/01/08 08:27:16;;;;;;;8.27;3.00;;;;;;;;;;5041013;28;20043;-64
2024/01/08 08:29:43;;;;;;;8.45;2.90;;;;;;;;;;5043235;28;20039;-64
2024/01/08 08:32:10;;;;;;;8.05;2.58;;;;;;;;;;5042274;28;20108;-64
2024/01/08 08:34:36;;;;;;;6.10;2.30;;;;;;;;;;5042785;28;20067;-64
2024/01/08 08:37:02;;;;;;;11.05;2.78;;;;;;;;;;5042529;28;20032;-64
2024/01/08 08:39:28;;;;;;;7.50;2.60;;;;;;;;;;5041895;28;20025;-64
2024/01/08 08:41:55;;;;;;;11.10;2.63;;;;;;;;;;5041131;28;20443;-64
2024/01/08 08:44:21;;;;;;;7.03;2.60;;;;;;;;;;5042991;28;20068;-64
2024/01/08 08:46:47;;;;;;;9.95;2.80;;;;;;;;;;5034203;28;20044;-64
2024/01/08 08:49:14;;;;;;;10.25;2.50;;;;;;;;;;5042350;28;20435;-64
2024/01/08 08:51:40;;;;;;;10.68;3.00;;;;;;;;;;5042141;28;20027;-64
2024/01/08 08:54:06;;;;;;;13.65;2.67;;;;;;;;;;5042430;28;20032;-64
2024/01/08 08:56:33;;;;;;;12.18;3.10;;;;;;;;;;5041206;28;20036;-64
2024/01/08 08:58:59;;;;;;;7.72;2.90;;;;;;;;;;5041637;28;20090;-63
2024/01/08 09:01:25;;;;;;;8.10;2.50;;;;;;;;;;5040378;28;20040;-64
2024/01/08 09:03:52;;;;;;;7.70;2.67;;;;;;;;;;5042799;28;20044;-64
2024/01/08 09:06:20;;;;;;;7.43;2.65;;;;;;;;;;5041859;28;20156;-64
2024/01/08 09:08:55;;;;;;;9.63;2.65;;;;;;;;;;5042549;28;20524;-64
2024/01/08 09:11:21;;;;;;;10.15;2.85;;;;;;;;;;5040611;28;20484;-64
2024/01/08 09:13:48;;;;;;;5.85;2.55;;;;;;;;;;5040623;28;20738;-64
2024/01/08 09:16:15;;;;;;;7.65;3.13;;;;;;;;;;5054343;28;20028;-64
2024/01/08 09:18:41;;;;;;;7.60;2.78;;;;;;;;;;5041319;28;20036;-63
2024/01/08 09:21:08;;;;;;;6.28;2.60;;;;;;;;;;5039699;28;20081;-63
2024/01/08 09:23:34;;;;;;;7.90;3.03;;;;;;;;;;5050081;28;20600;-64
2024/01/08 09:26:00;;;;;;;6.25;2.03;;;;;;;;;;5040668;28;20029;-64
2024/01/08 09:28:27;;;;;;;6.82;2.50;;;;;;;;;;5041744;28;20935;-64
2024/01/08 09:30:54;;;;;;;7.47;2.60;;;;;;;;;;5040692;28;20119;-64
2024/01/08 09:33:20;;;;;;;5.40;1.90;;;;;;;;;;5038122;28;20032;-64
2024/01/08 09:35:47;;;;;;;5.07;1.90;;;;;;;;;;5041035;28;20040;-64
2024/01/08 09:38:13;;;;;;;6.03;2.47;;;;;;;;;;5040274;28;20086;-64
2024/01/08 09:40:40;;;;;;;13.90;2.53;;;;;;;;;;5040185;28;20748;-64
2024/01/08 09:43:07;;;;;;;12.57;2.97;;;;;;;;;;5041615;28;20043;-64
2024/01/08 09:45:33;;;;;;;8.13;2.75;;;;;;;;;;5040780;28;20032;-64
2024/01/08 09:48:00;;;;;;;6.15;2.25;;;;;;;;;;5040784;28;20024;-64
2024/01/08 09:50:26;;;;;;;9.13;2.25;;;;;;;;;;5041733;28;20040;-64
2024/01/08 09:52:54;;;;;;;6.82;1.80;;;;;;;;;;5040319;28;20036;-64
2024/01/08 09:55:20;;;;;;;6.65;2.08;;;;;;;;;;5041713;28;20056;-63
2024/01/08 09:57:46;;;;;;;4.30;2.00;;;;;;;;;;5041515;28;20039;-63
2024/01/08 10:00:13;;;;;;;7.40;2.08;;;;;;;;;;5041531;28;20039;-63
2024/01/08 10:02:40;;;;;;;7.80;2.40;;;;;;;;;;5040229;28;20071;-63
2024/01/08 10:05:07;;;;;;;4.68;2.15;;;;;;;;;;5041224;28;21323;-64
2024/01/08 10:07:36;;;;;;;7.25;2.47;;;;;;;;;;5040776;28;20056;-63
2024/01/08 10:10:03;;;;;;;5.78;2.20;;;;;;;;;;5039425;28;20646;-63
2024/01/08 10:12:32;;;;;;;7.25;2.05;;;;;;;;;;5039876;28;20122;-64
2024/01/08 10:14:59;;;;;;;9.18;2.53;;;;;;;;;;5040198;28;20115;-63
2024/01/08 10:17:25;;;;;;;5.70;2.42;;;;;;;;;;5037477;28;20530;-63
2024/01/08 10:19:51;;;;;;;4.95;1.98;;;;;;;;;;5040659;28;20062;-63
2024/01/08 10:22:18;;;;;;;7.43;1.63;;;;;;;;;;5039935;28;20042;-63
2024/01/08 10:24:45;;;;;;;6.93;2.10;;;;;;;;;;5040468;28;20489;-63
2024/01/08 10:27:12;;;;;;;4.50;2.00;;;;;;;;;;5040452;28;20116;-62
2024/01/08 10:29:39;;;;;;;6.07;2.40;;;;;;;;;;5040473;28;20032;-63
2024/01/08 10:32:05;;;;;;;5.82;2.28;;;;;;;;;;5039554;28;20085;-63
2024/01/08 10:34:33;;;;;;;10.38;2.53;;;;;;;;;;5040241;28;20095;-63
2024/01/08 10:37:00;;;;;;;6.47;2.20;;;;;;;;;;5040626;28;20025;-63
2024/01/08 10:39:30;;;;;;;7.40;3.25;;;;;;;;;;5039344;28;20037;-63
2024/01/08 10:42:00;;;;;;;8.35;2.72;;;;;;;;;;5039813;28;20171;-63
2024/01/08 10:44:26;;;;;;;6.75;2.63;;;;;;;;;;5040169;28;20032;-64
2024/01/08 10:46:58;;;;;;;9.40;2.25;;;;;;;;;;5039094;28;20430;-64
2024/01/08 10:49:31;;;;;;;5.85;2.20;;;;;;;;;;5039646;28;20090;-63
2024/01/08 10:52:01;;;;;;;6.18;2.63;;;;;;;;;;5040561;28;20395;-63
2024/01/08 10:54:56;;;;;;;6.68;2.30;;;;;;;;;;5041060;28;20025;-63
2024/01/08 10:57:27;;;;;;;6.47;2.55;;;;;;;;;;5027063;28;20090;-63
2024/01/08 10:59:53;;;;;;;5.95;2.78;;;;;;;;;;5038786;28;20039;-64
2024/01/08 11:02:19;;;;;;;6.43;2.20;;;;;;;;;;5040057;28;20028;-63
2024/01/08 11:04:46;;;;;;;4.43;2.00;;;;;;;;;;5032449;28;20094;-64
2024/01/08 11:07:13;;;;;;;4.95;1.90;;;;;;;;;;5042546;28;20086;-64
2024/01/08 11:09:40;;;;;;;5.90;2.20;;;;;;;;;;5044222;28;20054;-64
2024/01/08 11:12:10;;;;;;;8.00;2.30;;;;;;;;;;5043503;28;20082;-64
2024/01/08 11:14:36;;;;;;;4.93;1.80;;;;;;;;;;5036002;28;20046;-64
2024/01/08 11:17:02;;;;;;;8.77;1.95;;;;;;;;;;5036520;28;20693;-63
2024/01/08 11:19:28;;;;;;;5.80;2.08;;;;;;;;;;5036462;28;20041;-63
2024/01/08 11:21:55;;;;;;;8.23;2.70;;;;;;;;;;5038346;28;20042;-64
2024/01/08 11:24:22;;;;;;;6.20;1.90;;;;;;;;;;5037011;28;20048;-64
2024/01/08 11:26:49;;;;;;;6.70;2.08;;;;;;;;;;5038053;28;21719;-64
2024/01/08 11:29:16;;;;;;;6.70;2.30;;;;;;;;;;5028206;28;20060;-64
2024/01/08 11:31:48;;;;;;;5.38;2.00;;;;;;;;;;5037236;28;20043;-64
2024/01/08 11:34:45;;;;;;;7.32;2.20;;;;;;;;;;5037735;28;20040;-63
2024/01/08 11:37:12;;;;;;;6.68;2.20;;;;;;;;;;5037702;28;20071;-64
2024/01/08 11:39:39;;;;;;;7.22;2.60;;;;;;;;;;5037311;28;20190;-64
2024/01/08 11:42:09;;;;;;;6.05;2.60;;;;;;;;;;5037971;28;20036;-64
2024/01/08 11:44:35;;;;;;;7.32;2.47;;;;;;;;;;5037264;28;20071;-64
2024/01/08 11:47:03;;;;;;;6.05;2.20;;;;;;;;;;5037012;28;20643;-64
2024/01/08 11:49:29;;;;;;;5.25;2.65;;;;;;;;;;5036930;28;20033;-64
2024/01/08 11:52:00;;;;;;;6.55;2.10;;;;;;;;;;5037759;28;20060;-64
2024/01/08 11:54:26;;;;;;;5.38;2.00;;;;;;;;;;5038168;28;20033;-63
2024/01/08 11:56:52;;;;;;;5.65;1.95;;;;;;;;;;5037700;28;20687;-64
2024/01/08 11:59:31;;;;;;;4.25;1.98;;;;;;;;;;5036584;28;20123;-64
2024/01/08 12:02:15;;;;;;;5.75;1.95;;;;;;;;;;5033752;28;20141;-64
2024/01/08 12:04:42;;;;;;;5.32;2.45;;;;;;;;;;5036904;28;20036;-63
2024/01/08 12:07:12;;;;;;;4.28;1.80;;;;;;;;;;5036885;28;20028;-63
2024/01/08 12:09:38;;;;;;;5.50;2.03;;;;;;;;;;5036216;28;20051;-63
2024/01/08 12:12:05;;;;;;;5.75;2.00;;;;;;;;;;5037090;28;20135;-64
2024/01/08 12:14:32;;;;;;;6.28;1.60;;;;;;;;;;5035497;28;20059;-64
2024/01/08 12:16:58;;;;;;;6.90;1.95;;;;;;;;;;5035177;28;20033;-64
2024/01/08 12:19:35;;;;;;;5.00;2.10;;;;;;;;;;5037020;28;20037;-64
2024/01/08 12:22:01;;;;;;;3.80;1.65;;;;;;;;;;5037095;28;20032;-64
2024/01/08 12:24:27;;;;;;;5.28;1.88;;;;;;;;;;5036763;28;20138;-64
2024/01/08 12:26:53;;;;;;;6.35;2.10;;;;;;;;;;5036629;28;20043;-65
2024/01/08 12:29:19;;;;;;;5.55;2.20;;;;;;;;;;5035605;28;20047;-64
2024/01/08 12:31:45;;;;;;;4.95;1.90;;;;;;;;;;5036893;28;20040;-64
2024/01/08 12:34:12;;;;;;;6.15;2.05;;;;;;;;;;5035665;28;20029;-65
2024/01/08 12:36:38;;;;;;;7.22;2.40;;;;;;;;;;5036013;28;20032;-64
2024/01/08 12:39:04;;;;;;;5.43;2.03;;;;;;;;;;5035826;28;20037;-65
2024/01/08 12:41:30;;;;;;;8.38;2.40;;;;;;;;;;5034945;28;20036;-64
2024/01/08 12:43:56;;;;;;;5.72;1.92;;;;;;;;;;5036107;28;20858;-64
2024/01/08 12:46:22;;;;;;;8.63;2.63;;;;;;;;;;5036684;28;20043;-64
2024/01/08 12:48:48;;;;;;;5.85;2.50;;;;;;;;;;5036517;28;20039;-64
2024/01/08 12:51:15;;;;;;;6.47;2.15;;;;;;;;;;5036882;28;20045;-64
2024/01/08 12:53:41;;;;;;;5.57;2.08;;;;;;;;;;5035890;28;20040;-64
2024/01/08 12:56:09;;;;;;;4.55;1.95;;;;;;;;;;5036106;28;20055;-64
2024/01/08 12:58:35;;;;;;;4.13;2.00;;;;;;;;;;5035681;28;20052;-64
2024/01/08 13:01:01;;;;;;;5.60;2.15;;;;;;;;;;5032589;28;20037;-64
2024/01/08 13:03:27;;;;;;;6.95;2.30;;;;;;;;;;5032349;28;20085;-64
2024/01/08 13:05:53;;;;;;;7.00;2.60;;;;;;;;;;5031830;28;20045;-64
2024/01/08 13:08:19;;;;;;;6.63;2.33;;;;;;;;;;5031959;28;20059;-63
2024/01/08 13:10:45;;;;;;;7.35;2.63;;;;;;;;;;5039417;28;20617;-64
2024/01/08 13:13:11;;;;;;;5.57;2.38;;;;;;;;;;5038318;28;20029;-64
2024/01/08 13:15:39;;;;;;;5.93;2.00;;;;;;;;;;5039886;28;20123;-64
2024/01/08 13:18:05;;;;;;;7.28;2.30;;;;;;;;;;5054901;28;20032;-64
2024/01/08 13:20:31;;;;;;;6.28;2.25;;;;;;;;;;5040552;28;20024;-64
2024/01/08 13:22:57;;;;;;;9.05;2.33;;;;;;;;;;5042245;28;20089;-64
2024/01/08 13:25:23;;;;;;;7.50;2.30;;;;;;;;;;5041681;28;20051;-64
2024/01/08 13:27:49;;;;;;;6.03;2.90;;;;;;;;;;5055775;28;20115;-64
2024/01/08 13:30:15;;;;;;;6.90;2.25;;;;;;;;;;5042002;28;20162;-64
2024/01/08 13:32:42;;;;;;;4.90;1.90;;;;;;;;;;5040990;28;20101;-64
2024/01/08 13:35:08;;;;;;;5.50;2.40;;;;;;;;;;5041178;28;20031;-64
2024/01/08 13:37:34;;;;;;;10.15;2.70;;;;;;;;;;5042069;28;21793;-64
2024/01/08 13:40:00;;;;;;;6.43;2.17;;;;;;;;;;5041697;28;20040;-65
2024/01/08 13:42:27;;;;;;;10.52;2.72;;;;;;;;;;5041261;28;20093;-64
2024/01/08 13:44:54;;;;;;;5.97;2.42;;;;;;;;;;5042021;28;20217;-64
2024/01/08 13:47:20;;;;;;;6.15;2.33;;;;;;;;;;5040539;28;20033;-64
2024/01/08 13:49:46;;;;;;;6.85;2.95;;;;;;;;;;5040945;28;20136;-64
2024/01/08 13:52:12;;;;;;;5.80;2.72;;;;;;;;;;5042015;28;20036;-64
2024/01/08 13:54:38;;;;;;;4.85;1.90;;;;;;;;;;5041921;28;20056;-65
2024/01/08 13:57:04;;;;;;;8.60;2.47;;;;;;;;;;5042112;28;20279;-64
2024/01/08 13:59:30;;;;;;;6.45;2.70;;;;;;;;;;5040550;28;20040;-64
2024/01/08 14:01:57;;;;;;;4.45;2.00;;;;;;;;;;5055127;28;20033;-64
2024/01/08 14:04:24;;;;;;;7.90;2.50;;;;;;;;;;5040515;28;20125;-65
2024/01/08 14:06:50;;;;;;;5.55;2.13;;;;;;;;;;5039471;28;20041;-65
2024/01/08 14:09:16;;;;;;;6.60;2.72;;;;;;;;;;5041553;28;20048;-64
2024/01/08 14:11:42;;;;;;;5.75;2.70;;;;;;;;;;5041466;28;20037;-64
2024/01/08 14:14:08;;;;;;;10.70;3.75;;;;;;;;;;5041288;28;20060;-65
2024/01/08 14:16:34;;;;;;;6.95;3.03;;;;;;;;;;5040346;28;20063;-65
2024/01/08 14:19:00;;;;;;;6.45;2.70;;;;;;;;;;5040085;28;20028;-65
2024/01/08 14:21:26;;;;;;;7.43;2.50;;;;;;;;;;5054005;28;20037;-65
2024/01/08 14:23:52;;;;;;;7.47;2.47;;;;;;;;;;5039034;28;20036;-65
2024/01/08 14:26:18;;;;;;;6.20;2.20;;;;;;;;;;5039817;28;21623;-64
2024/01/08 14:28:45;;;;;;;10.18;2.70;;;;;;;;;;5039960;28;20538;-64
2024/01/08 14:31:11;;;;;;;6.05;1.90;;;;;;;;;;5040007;28;20101;-65
2024/01/08 14:33:37;;;;;;;7.25;2.50;;;;;;;;;;5038784;28;20067;-65
2024/01/08 14:36:03;;;;;;;5.45;2.38;;;;;;;;;;5039205;28;20113;-65
2024/01/08 14:38:30;;;;;;;7.32;2.35;;;;;;;;;;5039395;28;20029;-65